Time;durP1;ratioP1;P1;durP2;ratioP2;P2;SDS_P1;SDS_P2;PMS_P1;PMS_P2;Temp;Humidity;BMP_temperature;BMP_pressure;BME280_temperature;BME280_humidity;BME280_pressure;Samples;Min_cycle;Max_cycle;Signal;HPM_P1;HPM_P2
2021/09/10 00:01:10;;;;;;;6.60;6.00;;;23.90;63.50;;;;;;5032963;28;20168;-70
2021/09/10 00:03:35;;;;;;;6.55;5.43;;;23.90;63.50;;;;;;5032786;28;20171;-71
2021/09/10 00:06:01;;;;;;;6.22;5.70;;;23.80;63.50;;;;;;5033180;28;20180;-71
2021/09/10 00:08:26;;;;;;;5.68;5.18;;;23.90;63.50;;;;;;5032294;28;20172;-71
2021/09/10 00:10:52;;;;;;;6.10;5.60;;;23.80;63.50;;;;;;5033078;28;20326;-71
2021/09/10 00:13:17;;;;;;;5.80;5.40;;;23.80;63.50;;;;;;5032856;28;20211;-71
2021/09/10 00:15:43;;;;;;;6.13;5.63;;;23.80;63.60;;;;;;5032598;28;20187;-71
2021/09/10 00:18:08;;;;;;;6.00;5.50;;;23.80;63.50;;;;;;5032982;28;20183;-70
2021/09/10 00:20:34;;;;;;;7.25;6.55;;;23.80;63.60;;;;;;5032192;28;20199;-71
2021/09/10 00:22:59;;;;;;;6.53;6.03;;;23.80;63.50;;;;;;5032828;28;20203;-72
2021/09/10 00:25:25;;;;;;;6.25;5.53;;;23.80;63.50;;;;;;5032735;28;20796;-71
2021/09/10 00:27:50;;;;;;;5.78;5.28;;;23.80;63.60;;;;;;5032684;28;20267;-71
2021/09/10 00:30:16;;;;;;;6.38;5.88;;;23.80;63.60;;;;;;5032861;28;20250;-70
2021/09/10 00:32:41;;;;;;;6.20;5.70;;;23.80;63.60;;;;;;5032681;28;20211;-70
2021/09/10 00:35:07;;;;;;;5.50;5.07;;;23.80;63.60;;;;;;5032395;28;20546;-70
2021/09/10 00:37:33;;;;;;;5.85;5.35;;;23.80;63.70;;;;;;5032489;28;20632;-71
2021/09/10 00:39:58;;;;;;;6.40;5.53;;;23.80;63.60;;;;;;5032968;28;20214;-71
2021/09/10 00:42:24;;;;;;;6.20;5.70;;;23.80;63.70;;;;;;5032110;28;20210;-72
2021/09/10 00:44:49;;;;;;;6.30;5.80;;;23.80;63.60;;;;;;5032711;28;20167;-72
2021/09/10 00:47:15;;;;;;;7.03;6.32;;;23.80;63.60;;;;;;5032701;28;20624;-72
2021/09/10 00:49:40;;;;;;;6.47;5.95;;;23.80;63.70;;;;;;5030775;28;20186;-71
2021/09/10 00:52:06;;;;;;;5.60;5.10;;;23.80;63.70;;;;;;5032706;28;20207;-72
2021/09/10 00:54:31;;;;;;;6.43;5.93;;;23.80;63.70;;;;;;5032643;28;20180;-71
2021/09/10 00:56:58;;;;;;;6.82;5.70;;;23.80;63.70;;;;;;5033927;28;20175;-72
2021/09/10 00:59:24;;;;;;;5.60;5.15;;;23.80;63.70;;;;;;5035171;28;20245;-71
2021/09/10 01:01:49;;;;;;;6.35;5.78;;;23.80;63.70;;;;;;5036738;28;20709;-70
2021/09/10 01:04:15;;;;;;;6.43;5.95;;;23.80;63.70;;;;;;5018463;28;20202;-71
2021/09/10 01:06:40;;;;;;;6.40;5.80;;;23.80;63.80;;;;;;5036252;28;20178;-71
2021/09/10 01:09:07;;;;;;;6.15;5.65;;;23.70;63.70;;;;;;5035126;28;20172;-71
2021/09/10 01:11:32;;;;;;;5.85;5.45;;;23.80;63.80;;;;;;5034312;28;20211;-71
2021/09/10 01:13:58;;;;;;;6.75;6.25;;;23.70;63.80;;;;;;5036476;28;20203;-70
2021/09/10 01:16:23;;;;;;;6.53;6.03;;;23.70;63.70;;;;;;5035014;28;20172;-70
2021/09/10 01:18:49;;;;;;;6.55;5.95;;;23.70;63.70;;;;;;5017830;28;20630;-71
2021/09/10 01:21:14;;;;;;;5.88;5.38;;;23.70;63.70;;;;;;5036491;28;20187;-72
2021/09/10 01:23:40;;;;;;;6.43;5.93;;;23.70;63.70;;;;;;5035438;28;20180;-72
2021/09/10 01:26:05;;;;;;;6.70;6.20;;;23.70;63.70;;;;;;5035967;28;20206;-71
2021/09/10 01:28:31;;;;;;;6.18;5.68;;;23.70;63.70;;;;;;5036043;28;20175;-71
2021/09/10 01:30:56;;;;;;;6.28;5.55;;;23.70;63.80;;;;;;5035605;28;20607;-70
2021/09/10 01:33:22;;;;;;;6.43;5.93;;;23.70;63.80;;;;;;5035402;28;20222;-71
2021/09/10 01:35:48;;;;;;;6.32;5.78;;;23.70;63.80;;;;;;5036258;28;20252;-70
2021/09/10 01:38:13;;;;;;;6.35;5.85;;;23.70;63.80;;;;;;5035651;28;20171;-71
2021/09/10 01:40:39;;;;;;;6.15;5.60;;;23.70;63.80;;;;;;5035542;28;20210;-72
2021/09/10 01:43:05;;;;;;;7.18;6.57;;;23.70;63.80;;;;;;5036034;28;20176;-72
2021/09/10 01:45:31;;;;;;;6.65;6.05;;;23.70;63.80;;;;;;5035099;28;20171;-71
2021/09/10 01:47:56;;;;;;;6.28;5.78;;;23.70;63.80;;;;;;5036148;28;20500;-72
2021/09/10 01:50:23;;;;;;;6.07;5.55;;;23.70;63.90;;;;;;5035647;28;20189;-72
2021/09/10 01:52:49;;;;;;;5.88;5.40;;;23.70;63.80;;;;;;5035360;28;20246;-72
2021/09/10 01:55:14;;;;;;;6.03;5.53;;;23.70;63.80;;;;;;5035598;28;20578;-71
2021/09/10 01:57:46;;;;;;;6.55;6.00;;;23.70;63.80;;;;;;5035568;28;20595;-71
2021/09/10 02:00:12;;;;;;;6.90;6.40;;;23.70;63.90;;;;;;5035099;28;20172;-70
2021/09/10 02:02:37;;;;;;;6.47;5.88;;;23.70;63.80;;;;;;5034949;28;20222;-70
2021/09/10 02:05:03;;;;;;;6.95;6.35;;;23.70;63.80;;;;;;5035665;28;20180;-71
2021/09/10 02:07:29;;;;;;;6.53;6.03;;;23.70;63.80;;;;;;5034486;28;20180;-71
2021/09/10 02:09:54;;;;;;;6.40;5.90;;;23.70;63.80;;;;;;5034388;28;20219;-71
2021/09/10 02:12:20;;;;;;;7.05;6.45;;;23.70;63.80;;;;;;5035375;28;20249;-71
2021/09/10 02:14:45;;;;;;;6.18;5.68;;;23.70;63.80;;;;;;5034655;28;20711;-70
2021/09/10 02:17:11;;;;;;;6.40;5.90;;;23.70;63.80;;;;;;5035564;28;20253;-70
2021/09/10 02:19:36;;;;;;;6.82;6.15;;;23.70;63.80;;;;;;5035239;28;20176;-71
2021/09/10 02:22:02;;;;;;;6.20;5.70;;;23.60;63.80;;;;;;5034612;28;20172;-72
2021/09/10 02:24:27;;;;;;;6.72;5.75;;;23.60;63.70;;;;;;5034892;28;20172;-72
2021/09/10 02:26:53;;;;;;;6.35;5.75;;;23.60;63.80;;;;;;5035207;28;20227;-71
2021/09/10 02:29:18;;;;;;;6.65;6.05;;;23.60;63.80;;;;;;5034405;28;20249;-70
2021/09/10 02:31:44;;;;;;;6.60;6.00;;;23.70;63.80;;;;;;5034713;28;20176;-70
2021/09/10 02:34:09;;;;;;;6.55;6.05;;;23.70;63.80;;;;;;5034651;28;20218;-71
2021/09/10 02:36:35;;;;;;;6.72;6.13;;;23.60;63.70;;;;;;5034622;28;20172;-71
2021/09/10 02:39:03;;;;;;;5.88;5.38;;;23.60;63.70;;;;;;5035021;28;20255;-71
2021/09/10 02:41:29;;;;;;;6.25;5.75;;;23.60;63.70;;;;;;5034177;28;20219;-72
2021/09/10 02:43:54;;;;;;;6.28;5.75;;;23.60;63.70;;;;;;5034646;28;20211;-72
2021/09/10 02:46:20;;;;;;;5.68;5.18;;;23.60;63.70;;;;;;5034693;28;20572;-72
2021/09/10 02:48:45;;;;;;;6.00;5.60;;;23.60;63.80;;;;;;5034382;28;20182;-72
2021/09/10 02:51:11;;;;;;;6.57;6.07;;;23.60;63.70;;;;;;5034647;28;20184;-72
2021/09/10 02:53:36;;;;;;;6.38;5.88;;;23.60;63.70;;;;;;5034275;28;20211;-72
2021/09/10 02:56:02;;;;;;;6.63;6.03;;;23.60;63.70;;;;;;5034068;28;20172;-71
2021/09/10 02:58:27;;;;;;;6.88;6.30;;;23.60;63.70;;;;;;5033992;28;20214;-71
2021/09/10 03:00:53;;;;;;;6.32;5.82;;;23.60;63.80;;;;;;5034430;28;20168;-71
2021/09/10 03:03:18;;;;;;;6.53;6.00;;;23.60;63.80;;;;;;5034144;28;20630;-71
2021/09/10 03:05:44;;;;;;;6.80;5.70;;;23.60;63.70;;;;;;5033808;28;20176;-71
2021/09/10 03:08:09;;;;;;;6.03;5.53;;;23.60;63.70;;;;;;5034289;28;20642;-71
2021/09/10 03:10:35;;;;;;;6.93;6.32;;;23.60;63.70;;;;;;5033342;28;20234;-71
2021/09/10 03:13:00;;;;;;;6.07;5.57;;;23.60;63.70;;;;;;5033967;28;20207;-71
2021/09/10 03:15:26;;;;;;;7.25;6.65;;;23.60;63.70;;;;;;5033745;28;20168;-71
2021/09/10 03:17:51;;;;;;;6.22;5.72;;;23.60;63.70;;;;;;5033377;28;20629;-71
2021/09/10 03:20:17;;;;;;;6.55;5.97;;;23.60;63.70;;;;;;5034071;28;20197;-71
2021/09/10 03:22:42;;;;;;;6.82;6.32;;;23.60;63.70;;;;;;5033784;28;20263;-72
2021/09/10 03:25:08;;;;;;;7.03;6.47;;;23.60;63.70;;;;;;5033425;28;20266;-72
2021/09/10 03:27:35;;;;;;;6.25;5.75;;;23.60;63.70;;;;;;5033595;28;20179;-71
2021/09/10 03:30:02;;;;;;;6.53;6.03;;;23.50;63.60;;;;;;5033822;28;20529;-71
2021/09/10 03:32:28;;;;;;;6.25;5.75;;;23.60;63.70;;;;;;5032953;28;20272;-71
2021/09/10 03:34:53;;;;;;;6.20;5.70;;;23.50;63.60;;;;;;5033946;28;20164;-71
2021/09/10 03:37:19;;;;;;;6.55;5.95;;;23.60;63.60;;;;;;5033239;28;20190;-71
2021/09/10 03:39:44;;;;;;;6.47;5.88;;;23.50;63.60;;;;;;5033231;28;20622;-71
2021/09/10 03:42:10;;;;;;;6.00;5.50;;;23.50;63.50;;;;;;5033709;28;20180;-72
2021/09/10 03:44:35;;;;;;;6.65;5.80;;;23.50;64.50;;;;;;5032695;28;20182;-72
2021/09/10 03:47:04;;;;;;;6.53;5.93;;;23.50;63.50;;;;;;5033592;28;20222;-72
2021/09/10 03:49:31;;;;;;;6.40;5.90;;;23.50;63.50;;;;;;5033369;28;20183;-72
2021/09/10 03:51:56;;;;;;;6.55;6.05;;;23.50;63.60;;;;;;5033125;28;20218;-72
2021/09/10 03:54:22;;;;;;;6.93;6.28;;;23.50;63.50;;;;;;5032828;28;20583;-72
2021/09/10 03:56:47;;;;;;;6.28;5.78;;;23.50;63.50;;;;;;5033401;28;20238;-72
2021/09/10 03:59:13;;;;;;;6.68;6.18;;;23.50;64.10;;;;;;5032929;28;20176;-71
2021/09/10 04:01:38;;;;;;;6.65;6.05;;;23.50;63.50;;;;;;5033047;28;20207;-71
2021/09/10 04:04:04;;;;;;;6.80;6.20;;;23.50;63.50;;;;;;5033237;28;20168;-71
2021/09/10 04:06:29;;;;;;;6.28;5.78;;;23.50;63.50;;;;;;5032587;28;20187;-72
2021/09/10 04:08:55;;;;;;;6.45;5.93;;;23.50;63.50;;;;;;5032969;28;20583;-72
2021/09/10 04:11:20;;;;;;;6.55;6.05;;;23.50;63.50;;;;;;5032875;28;20227;-71
2021/09/10 04:13:46;;;;;;;6.25;5.65;;;23.50;63.50;;;;;;5032653;28;20215;-71
2021/09/10 04:16:11;;;;;;;6.22;5.63;;;23.50;63.50;;;;;;5033178;28;20175;-71
2021/09/10 04:18:37;;;;;;;6.78;6.13;;;23.50;63.50;;;;;;5032814;28;20245;-71
2021/09/10 04:21:02;;;;;;;6.32;5.93;;;23.50;63.50;;;;;;5032495;28;20641;-72
2021/09/10 04:23:28;;;;;;;6.30;5.72;;;23.50;63.50;;;;;;5032852;28;20645;-72
2021/09/10 04:25:53;;;;;;;7.10;6.25;;;23.50;63.50;;;;;;5033049;28;20226;-72
2021/09/10 04:28:19;;;;;;;6.43;5.72;;;23.50;63.50;;;;;;5032319;28;20191;-71
2021/09/10 04:30:44;;;;;;;6.30;5.68;;;23.50;63.50;;;;;;5032804;28;20172;-71
2021/09/10 04:33:10;;;;;;;6.22;5.72;;;23.50;63.50;;;;;;5032818;28;20262;-70
2021/09/10 04:35:35;;;;;;;6.15;5.72;;;23.50;63.50;;;;;;5032037;28;20168;-70
2021/09/10 04:38:01;;;;;;;6.50;6.00;;;23.50;63.50;;;;;;5032999;28;20176;-71
2021/09/10 04:40:26;;;;;;;6.28;5.78;;;23.50;63.50;;;;;;5032504;28;20198;-72
2021/09/10 04:42:52;;;;;;;6.63;6.13;;;23.50;63.50;;;;;;5032118;28;20668;-72
2021/09/10 04:45:17;;;;;;;6.18;5.68;;;23.50;63.50;;;;;;5033004;28;20180;-72
2021/09/10 04:47:43;;;;;;;5.88;5.47;;;23.50;63.50;;;;;;5032131;28;20192;-72
2021/09/10 04:50:08;;;;;;;7.20;5.80;;;23.40;63.40;;;;;;5032701;28;20194;-72
2021/09/10 04:52:35;;;;;;;6.50;5.90;;;23.40;64.30;;;;;;5032714;28;20200;-71
2021/09/10 04:55:00;;;;;;;6.68;6.18;;;23.40;63.40;;;;;;5032203;28;20541;-71
2021/09/10 04:57:26;;;;;;;6.90;6.30;;;23.40;63.40;;;;;;5031972;28;20176;-70
2021/09/10 04:59:53;;;;;;;6.28;5.78;;;23.40;63.50;;;;;;5032904;28;20180;-69
2021/09/10 05:02:19;;;;;;;6.55;6.03;;;23.40;63.40;;;;;;5032335;28;20186;-70
2021/09/10 05:04:44;;;;;;;6.55;5.95;;;23.40;63.50;;;;;;5032143;28;20259;-70
2021/09/10 05:07:10;;;;;;;6.50;5.88;;;23.40;63.40;;;;;;5032801;28;20172;-71
2021/09/10 05:09:35;;;;;;;6.40;5.90;;;23.40;63.40;;;;;;5031716;28;20314;-70
2021/09/10 05:12:01;;;;;;;6.18;5.78;;;23.40;63.40;;;;;;5032215;28;20295;-70
2021/09/10 05:14:26;;;;;;;7.10;6.40;;;23.40;63.40;;;;;;5032187;28;20661;-70
2021/09/10 05:16:52;;;;;;;6.05;5.55;;;23.40;64.30;;;;;;5032247;28;20168;-70
2021/09/10 05:19:17;;;;;;;6.45;5.93;;;23.40;63.40;;;;;;5032540;28;20175;-71
2021/09/10 05:21:43;;;;;;;6.40;5.90;;;23.40;63.40;;;;;;5032361;28;20172;-71
2021/09/10 05:24:08;;;;;;;6.40;5.90;;;23.40;63.40;;;;;;5031747;28;20183;-72
2021/09/10 05:26:34;;;;;;;6.47;5.88;;;23.40;63.40;;;;;;5032132;28;20172;-72
2021/09/10 05:28:59;;;;;;;6.95;6.18;;;23.40;63.40;;;;;;5032365;28;20630;-70
2021/09/10 05:31:26;;;;;;;6.20;5.70;;;23.40;63.40;;;;;;5031314;28;20184;-70
2021/09/10 05:33:52;;;;;;;6.72;6.15;;;23.40;63.40;;;;;;5032427;28;20212;-70
2021/09/10 05:36:17;;;;;;;6.10;5.60;;;23.40;63.30;;;;;;5032465;28;20225;-70
2021/09/10 05:38:43;;;;;;;5.65;5.25;;;23.50;63.40;;;;;;5031325;28;20172;-71
2021/09/10 05:41:08;;;;;;;6.10;5.50;;;23.50;63.40;;;;;;5032252;28;20183;-71
2021/09/10 05:43:34;;;;;;;6.18;5.68;;;23.50;63.30;;;;;;5033004;28;20186;-71
2021/09/10 05:46:00;;;;;;;6.18;5.65;;;23.50;63.30;;;;;;5035030;28;20178;-72
2021/09/10 05:48:25;;;;;;;5.22;4.82;;;23.50;63.30;;;;;;5035556;28;20215;-71
2021/09/10 05:50:51;;;;;;;5.70;5.30;;;23.50;63.30;;;;;;5035934;28;20204;-72
2021/09/10 05:53:16;;;;;;;5.22;4.82;;;23.50;64.10;;;;;;5035066;28;20207;-71
2021/09/10 05:55:42;;;;;;;5.95;5.45;;;23.50;63.20;;;;;;5035383;28;20541;-71
2021/09/10 05:58:07;;;;;;;5.65;5.18;;;23.50;63.20;;;;;;5035158;28;20180;-71
2021/09/10 06:00:33;;;;;;;5.68;5.28;;;23.50;63.20;;;;;;5035225;28;20203;-70
2021/09/10 06:02:59;;;;;;;5.82;5.43;;;23.50;63.20;;;;;;5035701;28;20233;-70
2021/09/10 06:05:24;;;;;;;6.30;5.70;;;23.50;63.20;;;;;;5034839;28;20164;-70
2021/09/10 06:07:50;;;;;;;5.55;5.15;;;23.50;63.20;;;;;;5035205;28;20208;-70
2021/09/10 06:10:18;;;;;;;5.82;5.22;;;23.50;63.20;;;;;;5035934;28;20246;-70
2021/09/10 06:12:43;;;;;;;5.65;5.25;;;23.50;63.20;;;;;;5034665;28;20243;-70
2021/09/10 06:15:09;;;;;;;5.93;5.38;;;23.50;63.20;;;;;;5035294;28;20545;-70
2021/09/10 06:17:35;;;;;;;5.30;4.90;;;23.50;63.20;;;;;;5034953;28;20176;-70
2021/09/10 06:20:00;;;;;;;5.22;4.80;;;23.50;63.30;;;;;;5034737;28;20175;-70
2021/09/10 06:22:28;;;;;;;5.15;4.75;;;23.50;63.20;;;;;;5034685;28;20183;-72
2021/09/10 06:24:53;;;;;;;5.38;4.97;;;23.50;63.20;;;;;;5035077;28;20545;-70
2021/09/10 06:27:19;;;;;;;5.72;5.20;;;23.50;63.20;;;;;;5034590;28;20187;-70
2021/09/10 06:29:44;;;;;;;5.13;4.78;;;23.60;63.30;;;;;;5034868;28;20168;-69
2021/09/10 06:32:10;;;;;;;6.05;5.45;;;23.60;63.20;;;;;;5035135;28;20649;-69
2021/09/10 06:34:35;;;;;;;4.93;4.63;;;23.60;63.20;;;;;;5032774;28;20203;-70
2021/09/10 06:37:01;;;;;;;5.38;4.97;;;23.60;63.10;;;;;;5034980;28;20180;-70
2021/09/10 06:39:26;;;;;;;5.68;5.18;;;23.60;63.10;;;;;;5034464;28;20266;-71
2021/09/10 06:41:52;;;;;;;5.28;4.90;;;23.60;63.10;;;;;;5034016;28;20322;-71
2021/09/10 06:44:17;;;;;;;5.60;5.10;;;23.60;63.20;;;;;;5034921;28;20200;-71
2021/09/10 06:46:43;;;;;;;5.50;5.00;;;23.60;63.20;;;;;;5034359;28;20626;-72
2021/09/10 06:49:08;;;;;;;5.20;4.70;;;23.60;63.30;;;;;;5033974;28;20175;-71
2021/09/10 06:51:34;;;;;;;5.53;5.13;;;23.60;63.30;;;;;;5034362;28;20210;-71
2021/09/10 06:53:59;;;;;;;5.57;5.07;;;23.60;63.30;;;;;;5034114;28;20250;-71
2021/09/10 06:56:25;;;;;;;5.13;4.68;;;23.60;63.30;;;;;;5033379;28;20653;-72
2021/09/10 06:58:51;;;;;;;8.38;5.13;;;23.60;63.40;;;;;;5034610;28;20187;-68
2021/09/10 07:01:16;;;;;;;5.63;5.13;;;23.60;63.50;;;;;;5034059;28;20179;-71
2021/09/10 07:03:42;;;;;;;5.65;5.20;;;23.60;63.60;;;;;;5034073;28;20179;-70
2021/09/10 07:06:07;;;;;;;5.40;4.90;;;23.60;63.60;;;;;;5034466;28;20494;-67
2021/09/10 07:08:33;;;;;;;10.35;5.45;;;23.60;63.70;;;;;;5033476;28;20176;-72
2021/09/10 07:11:01;;;;;;;6.05;4.90;;;23.60;64.00;;;;;;5034040;28;20231;-73
2021/09/10 07:13:28;;;;;;;7.18;5.28;;;23.60;63.80;;;;;;5033770;28;20694;-74
2021/09/10 07:15:53;;;;;;;5.20;4.68;;;23.70;63.80;;;;;;5033760;28;20298;-74
2021/09/10 07:18:20;;;;;;;5.18;4.68;;;23.60;63.80;;;;;;5033961;28;20262;-74
2021/09/10 07:20:46;;;;;;;5.35;4.85;;;23.60;63.90;;;;;;5033971;28;20705;-72
2021/09/10 07:23:11;;;;;;;5.38;4.80;;;23.60;63.90;;;;;;5033476;28;20267;-72
2021/09/10 07:25:37;;;;;;;5.18;4.68;;;23.60;63.90;;;;;;5033608;28;20183;-72
2021/09/10 07:28:02;;;;;;;6.65;4.90;;;23.60;64.00;;;;;;5034087;28;20259;-74
2021/09/10 07:30:28;;;;;;;4.82;4.53;;;23.60;64.00;;;;;;5032918;28;20263;-72
2021/09/10 07:32:53;;;;;;;6.93;4.85;;;23.60;64.00;;;;;;5033742;28;20663;-71
2021/09/10 07:35:19;;;;;;;5.18;4.68;;;23.60;64.10;;;;;;5033809;28;20187;-71
2021/09/10 07:37:46;;;;;;;5.00;4.53;;;23.60;64.10;;;;;;5032782;28;20258;-71
2021/09/10 07:40:12;;;;;;;5.22;4.70;;;23.60;64.10;;;;;;5033913;28;20266;-70
2021/09/10 07:42:37;;;;;;;5.10;4.63;;;23.60;64.10;;;;;;5033501;28;20210;-72
2021/09/10 07:45:03;;;;;;;5.57;4.97;;;23.60;64.20;;;;;;5033049;28;20179;-72
2021/09/10 07:47:29;;;;;;;5.60;4.10;;;23.60;64.30;;;;;;5033331;28;20183;-72
2021/09/10 07:49:54;;;;;;;5.78;4.72;;;23.60;64.20;;;;;;5033459;28;20242;-72
2021/09/10 07:52:20;;;;;;;5.20;4.68;;;23.60;64.30;;;;;;5032545;28;20246;-74
2021/09/10 07:54:45;;;;;;;5.20;4.32;;;23.60;64.50;;;;;;5033634;28;20175;-74
2021/09/10 07:57:11;;;;;;;4.85;4.45;;;23.70;64.40;;;;;;5033604;28;20206;-77
2021/09/10 07:59:38;;;;;;;5.00;4.60;;;23.70;64.50;;;;;;5032496;28;20164;-74
2021/09/10 08:02:03;;;;;;;4.72;4.32;;;23.70;64.60;;;;;;5033416;28;20245;-72
2021/09/10 08:04:28;;;;;;;5.47;4.75;;;23.70;64.40;;;;;;5033104;28;20180;-72
2021/09/10 08:06:54;;;;;;;7.30;5.00;;;23.70;64.40;;;;;;5031810;28;20172;-74
2021/09/10 08:09:19;;;;;;;7.45;4.93;;;23.70;64.30;;;;;;5032732;28;20242;-76
2021/09/10 08:11:45;;;;;;;5.05;4.55;;;23.70;64.50;;;;;;5032752;28;20586;-79
2021/09/10 08:14:11;;;;;;;5.63;4.38;;;23.70;64.40;;;;;;5033297;28;20203;-79
2021/09/10 08:16:36;;;;;;;5.57;4.80;;;23.80;64.60;;;;;;5032639;28;20183;-76
2021/09/10 08:19:02;;;;;;;5.10;4.60;;;23.80;64.50;;;;;;5032667;28;20176;-78
2021/09/10 08:21:28;;;;;;;5.65;4.70;;;23.80;64.40;;;;;;5032464;28;20274;-72
2021/09/10 08:23:53;;;;;;;5.55;4.43;;;23.80;64.70;;;;;;5032978;28;20284;-73
2021/09/10 08:26:19;;;;;;;6.60;5.20;;;23.80;64.60;;;;;;5032386;28;20180;-74
2021/09/10 08:28:44;;;;;;;5.30;4.80;;;23.80;64.50;;;;;;5032877;28;20258;-73
2021/09/10 08:31:10;;;;;;;7.20;4.85;;;23.80;64.60;;;;;;5032962;28;20172;-75
2021/09/10 08:33:35;;;;;;;6.43;4.60;;;23.80;64.50;;;;;;5031801;28;20617;-74
2021/09/10 08:36:02;;;;;;;5.70;4.25;;;23.80;64.70;;;;;;5032841;28;20195;-73
2021/09/10 08:38:28;;;;;;;6.40;5.00;;;23.70;64.50;;;;;;5035289;28;20711;-73
2021/09/10 08:40:53;;;;;;;6.40;4.60;;;23.80;64.60;;;;;;5050276;28;20168;-73
2021/09/10 08:43:19;;;;;;;5.43;4.75;;;23.80;64.70;;;;;;5048731;28;20228;-73
2021/09/10 08:45:44;;;;;;;6.10;5.05;;;23.80;64.70;;;;;;5051690;28;20225;-71
2021/09/10 08:48:10;;;;;;;6.57;4.90;;;23.80;64.70;;;;;;5065193;28;20578;-73
2021/09/10 08:50:36;;;;;;;5.30;4.25;;;23.80;64.70;;;;;;5072253;28;20166;-72
2021/09/10 08:53:02;;;;;;;8.20;5.18;;;23.80;64.70;;;;;;5071272;28;20241;-73
2021/09/10 08:55:27;;;;;;;5.63;4.55;;;23.80;64.70;;;;;;5065332;28;20172;-73
2021/09/10 08:57:53;;;;;;;6.05;4.72;;;23.80;64.90;;;;;;5032797;28;20176;-73
2021/09/10 09:00:26;;;;;;;4.88;4.47;;;23.80;64.70;;;;;;5032588;28;20255;-73
2021/09/10 09:03:06;;;;;;;4.97;4.35;;;23.70;64.60;;;;;;5030843;28;20259;-74
2021/09/10 09:05:31;;;;;;;5.68;4.53;;;23.80;64.80;;;;;;5032257;28;20248;-72
2021/09/10 09:08:10;;;;;;;6.22;4.30;;;23.80;64.70;;;;;;5031985;28;20263;-73
2021/09/10 09:10:57;;;;;;;6.93;4.88;;;23.80;64.80;;;;;;5031888;28;20223;-74
2021/09/10 09:13:33;;;;;;;5.30;4.43;;;23.80;64.70;;;;;;5052680;28;20202;-74
2021/09/10 09:16:23;;;;;;;7.80;4.30;;;23.80;64.70;;;;;;5071893;28;20178;-76
2021/09/10 09:19:09;;;;;;;5.18;4.68;;;23.80;64.60;;;;;;5075375;28;20593;-73
2021/09/10 09:21:38;;;;;;;6.20;4.55;;;23.80;64.60;;;;;;5075402;28;20181;-76
2021/09/10 09:24:13;;;;;;;4.47;4.00;;;23.90;64.60;;;;;;5075540;28;20189;-79
2021/09/10 09:26:38;;;;;;;6.65;4.55;;;23.90;64.70;;;;;;5075846;28;20249;-73
2021/09/10 09:29:21;;;;;;;4.88;4.40;;;23.90;64.60;;;;;;5083339;28;20210;-77
2021/09/10 09:32:04;;;;;;;7.80;4.30;;;23.90;64.70;;;;;;5075840;28;20247;-75
2021/09/10 09:34:46;;;;;;;5.45;4.65;;;23.90;64.90;;;;;;5075656;28;20217;-78
2021/09/10 09:37:16;;;;;;;5.30;4.80;;;24.00;65.00;;;;;;5075491;28;20200;-76
2021/09/10 09:39:55;;;;;;;5.93;4.40;;;24.00;65.10;;;;;;5075702;28;20170;-77
2021/09/10 09:42:31;;;;;;;8.68;4.72;;;24.00;65.10;;;;;;5076059;28;20257;-79
2021/09/10 09:45:17;;;;;;;5.32;4.60;;;24.00;65.10;;;;;;5075130;28;20631;-78
2021/09/10 09:47:43;;;;;;;5.57;4.47;;;24.00;65.00;;;;;;5051834;28;20175;-79
2021/09/10 09:50:17;;;;;;;4.72;4.22;;;24.10;65.10;;;;;;5035777;28;20217;-73
2021/09/10 09:52:43;;;;;;;5.57;4.68;;;24.10;65.00;;;;;;5035310;28;20207;-69
2021/09/10 09:55:10;;;;;;;4.88;4.10;;;24.10;65.00;;;;;;5035548;28;20667;-69
2021/09/10 09:57:35;;;;;;;4.13;3.72;;;24.10;64.90;;;;;;5034680;28;20180;-68
2021/09/10 10:00:03;;;;;;;6.10;4.05;;;24.10;64.90;;;;;;5035567;28;20563;-68
2021/09/10 10:02:29;;;;;;;5.03;4.10;;;24.20;64.90;;;;;;5035333;28;20191;-68
2021/09/10 10:04:58;;;;;;;9.18;4.22;;;24.20;64.80;;;;;;5034651;28;20168;-68
2021/09/10 10:07:23;;;;;;;4.13;3.72;;;24.20;64.80;;;;;;5035147;28;20176;-73
2021/09/10 10:09:49;;;;;;;9.93;4.35;;;24.20;64.70;;;;;;5033905;28;20223;-76
2021/09/10 10:12:15;;;;;;;6.57;4.25;;;24.30;64.60;;;;;;5017118;28;20616;-77
2021/09/10 10:14:40;;;;;;;6.25;4.13;;;24.30;64.50;;;;;;5017652;28;20338;-77
2021/09/10 10:17:32;;;;;;;5.20;3.70;;;24.30;64.50;;;;;;5035445;28;20529;-71
2021/09/10 10:19:57;;;;;;;4.72;4.13;;;24.30;64.40;;;;;;5033842;28;20234;-72
2021/09/10 10:22:37;;;;;;;8.35;4.72;;;24.30;65.20;;;;;;5033574;28;20172;-72
2021/09/10 10:25:04;;;;;;;5.90;4.40;;;24.30;64.30;;;;;;5034994;28;20638;-71
2021/09/10 10:27:39;;;;;;;8.60;5.15;;;24.30;64.50;;;;;;5034059;28;20634;-71
2021/09/10 10:30:25;;;;;;;6.35;5.07;;;24.30;64.50;;;;;;5034448;28;20167;-71
2021/09/10 10:32:54;;;;;;;6.63;5.03;;;24.40;64.70;;;;;;5033547;28;20227;-71
2021/09/10 10:35:30;;;;;;;5.68;4.88;;;24.40;64.70;;;;;;5034815;28;20175;-71
2021/09/10 10:38:01;;;;;;;7.60;5.18;;;24.30;64.70;;;;;;5035106;28;20176;-75
2021/09/10 10:40:43;;;;;;;6.80;5.05;;;24.40;64.90;;;;;;5034009;28;20228;-74
2021/09/10 10:43:15;;;;;;;7.95;5.18;;;24.40;64.90;;;;;;5034851;28;20183;-75
2021/09/10 10:45:46;;;;;;;6.10;5.20;;;24.40;64.90;;;;;;5033599;28;20207;-74
2021/09/10 10:48:32;;;;;;;8.32;5.18;;;24.40;64.90;;;;;;5065618;28;20193;-74
2021/09/10 10:51:01;;;;;;;5.45;4.85;;;24.50;64.90;;;;;;5074873;28;20205;-76
2021/09/10 10:53:26;;;;;;;8.43;4.68;;;24.50;64.90;;;;;;5073747;28;20218;-76
2021/09/10 10:55:52;;;;;;;6.38;5.03;;;24.50;64.80;;;;;;5074034;28;20170;-74
2021/09/10 10:58:24;;;;;;;5.38;4.30;;;24.50;64.80;;;;;;5074593;28;20202;-75
2021/09/10 11:01:00;;;;;;;6.78;4.50;;;24.50;64.70;;;;;;5073760;28;20182;-73
2021/09/10 11:03:25;;;;;;;7.50;4.47;;;24.50;64.50;;;;;;5074041;28;20181;-75
2021/09/10 11:05:51;;;;;;;5.63;4.25;;;24.50;64.60;;;;;;5075177;28;20170;-72
2021/09/10 11:08:18;;;;;;;6.97;4.05;;;24.60;64.70;;;;;;5073585;28;20175;-76
2021/09/10 11:10:44;;;;;;;5.80;4.93;;;24.50;64.70;;;;;;5073682;28;20226;-77
2021/09/10 11:13:09;;;;;;;4.35;3.58;;;24.60;64.70;;;;;;5074142;28;20221;-77
2021/09/10 11:15:36;;;;;;;3.92;3.53;;;24.60;64.70;;;;;;5072989;28;20178;-78
2021/09/10 11:18:07;;;;;;;4.80;3.83;;;24.60;64.70;;;;;;5074132;28;20178;-78
2021/09/10 11:20:34;;;;;;;5.18;3.78;;;24.60;64.70;;;;;;5073757;28;20175;-77
2021/09/10 11:23:04;;;;;;;4.57;4.13;;;24.60;64.60;;;;;;5073066;28;20178;-78
2021/09/10 11:25:29;;;;;;;5.47;3.92;;;24.60;64.60;;;;;;5073777;28;20253;-77
2021/09/10 11:27:55;;;;;;;4.80;4.10;;;24.80;64.40;;;;;;5073962;28;20625;-75
2021/09/10 11:30:20;;;;;;;3.70;3.30;;;24.80;64.30;;;;;;5072988;28;20175;-77
2021/09/10 11:32:46;;;;;;;6.13;4.43;;;24.80;64.40;;;;;;5073631;28;20213;-75
2021/09/10 11:35:20;;;;;;;4.32;3.60;;;24.70;64.60;;;;;;5073784;28;20739;-73
2021/09/10 11:37:55;;;;;;;4.88;3.75;;;24.70;64.70;;;;;;5072867;28;20186;-73
2021/09/10 11:40:33;;;;;;;6.80;4.20;;;24.70;64.80;;;;;;5072945;28;20516;-72
2021/09/10 11:43:12;;;;;;;3.72;3.38;;;24.70;64.80;;;;;;5072333;28;20174;-75
2021/09/10 11:45:48;;;;;;;5.22;3.63;;;24.70;64.90;;;;;;5073030;28;20166;-74
2021/09/10 11:48:18;;;;;;;7.68;4.28;;;24.60;64.90;;;;;;5056220;28;20178;-75
2021/09/10 11:51:00;;;;;;;5.93;4.00;;;24.70;64.80;;;;;;5052615;28;20175;-75
2021/09/10 11:53:27;;;;;;;4.45;3.60;;;24.70;64.70;;;;;;5053086;28;20215;-75
2021/09/10 11:56:00;;;;;;;6.22;3.55;;;24.70;64.70;;;;;;5053381;28;20175;-72
2021/09/10 11:58:42;;;;;;;6.80;3.72;;;24.70;64.80;;;;;;5052017;28;20636;-73
2021/09/10 12:01:16;;;;;;;4.53;3.67;;;24.70;64.80;;;;;;5053494;28;20179;-76
2021/09/10 12:04:09;;;;;;;7.07;3.97;;;24.60;64.80;;;;;;5052607;28;20175;-74
2021/09/10 12:06:50;;;;;;;3.67;3.28;;;24.60;64.90;;;;;;5052733;28;20584;-74
2021/09/10 12:09:19;;;;;;;4.38;3.92;;;24.60;65.00;;;;;;5052120;28;20228;-75
2021/09/10 12:12:14;;;;;;;4.07;3.67;;;24.60;65.00;;;;;;5052351;28;20254;-72
2021/09/10 12:15:02;;;;;;;7.47;4.00;;;24.60;65.20;;;;;;5052753;28;20191;-73
2021/09/10 12:17:38;;;;;;;4.85;3.92;;;24.50;65.10;;;;;;5052802;28;20206;-70
2021/09/10 12:20:13;;;;;;;4.78;3.92;;;24.50;65.20;;;;;;5052412;28;20175;-74
2021/09/10 12:22:45;;;;;;;8.80;4.38;;;24.50;65.90;;;;;;5052583;28;20179;-75
2021/09/10 12:25:24;;;;;;;8.27;4.55;;;24.50;66.30;;;;;;5052252;28;20171;-70
2021/09/10 12:27:51;;;;;;;13.07;4.70;;;24.40;66.50;;;;;;5053022;28;20178;-72
2021/09/10 12:30:17;;;;;;;6.78;4.60;;;24.40;66.90;;;;;;5053055;28;20182;-68
2021/09/10 12:32:43;;;;;;;7.78;4.72;;;24.40;67.10;;;;;;5051740;28;20207;-69
2021/09/10 12:35:09;;;;;;;8.27;4.88;;;24.30;67.30;;;;;;5052831;28;20171;-69
2021/09/10 12:37:35;;;;;;;9.05;4.80;;;24.30;67.20;;;;;;5052642;28;20170;-76
2021/09/10 12:40:01;;;;;;;10.40;4.50;;;24.30;67.50;;;;;;5052002;28;20178;-72
2021/09/10 12:42:26;;;;;;;7.03;4.18;;;24.30;67.60;;;;;;5051433;28;20190;-71
2021/09/10 12:44:52;;;;;;;8.65;4.22;;;24.30;68.70;;;;;;5052739;28;20528;-70
2021/09/10 12:47:17;;;;;;;8.63;5.07;;;24.30;67.90;;;;;;5060181;28;20170;-75